Arthur, Arkansas
Current Conditions -  °F | °C
As of 7:53 AM on Friday 28 Nov 2014 (Local Time) from KRUE Reporting Station
Clear Clear  
Wind Chill: 33°   Ceiling: Unl
Heat Index: 33°   Visibility: 10mi
Dew Point: 29°   Wind: 3mph
Humidity: 85%   Direction: NA
Pressure: 30.32"   Gusts: NA
Location:  35.2722°N, 92.6766°W
Report Text: KRUE 281353Z AUTO VRB03KT 10SM CLR 01/M02 A3032 RMK AO2 SLP267 T00061017
Loading
Personal Weather Stations






























Interactive Weather Map New forecast layout! Learn more

10-Day Weather Forecast

Advertisements
Track Severe Weather on mobile